sensor_id;sensor_type;location;lat;lon;timestamp;P1;durP1;ratioP1;P2;durP2;ratioP2
54679;SDS011;40578;53.178;5.846;2023-04-12T00:00:32;10.30;;;3.97;;
54679;SDS011;40578;53.178;5.846;2023-04-12T00:02:57;10.13;;;3.43;;
54679;SDS011;40578;53.178;5.846;2023-04-12T00:05:27;9.25;;;3.78;;
54679;SDS011;40578;53.178;5.846;2023-04-12T00:07:53;13.77;;;4.25;;
54679;SDS011;40578;53.178;5.846;2023-04-12T00:10:19;14.13;;;4.13;;
54679;SDS011;40578;53.178;5.846;2023-04-12T00:12:46;11.50;;;3.90;;
54679;SDS011;40578;53.178;5.846;2023-04-12T00:15:12;10.03;;;3.20;;
54679;SDS011;40578;53.178;5.846;2023-04-12T00:17:38;8.60;;;3.58;;
54679;SDS011;40578;53.178;5.846;2023-04-12T00:20:04;14.17;;;4.00;;
54679;SDS011;40578;53.178;5.846;2023-04-12T00:22:36;9.65;;;3.83;;
54679;SDS011;40578;53.178;5.846;2023-04-12T00:25:02;12.18;;;3.75;;
54679;SDS011;40578;53.178;5.846;2023-04-12T00:27:28;8.73;;;3.83;;
54679;SDS011;40578;53.178;5.846;2023-04-12T00:29:54;10.67;;;4.33;;
54679;SDS011;40578;53.178;5.846;2023-04-12T00:32:19;9.33;;;3.97;;
54679;SDS011;40578;53.178;5.846;2023-04-12T00:34:45;7.23;;;3.90;;
54679;SDS011;40578;53.178;5.846;2023-04-12T00:37:11;9.73;;;3.70;;
54679;SDS011;40578;53.178;5.846;2023-04-12T00:39:36;9.83;;;3.97;;
54679;SDS011;40578;53.178;5.846;2023-04-12T00:42:02;13.47;;;4.23;;
54679;SDS011;40578;53.178;5.846;2023-04-12T00:46:56;8.27;;;3.70;;
54679;SDS011;40578;53.178;5.846;2023-04-12T00:49:22;6.85;;;3.63;;
54679;SDS011;40578;53.178;5.846;2023-04-12T00:51:48;11.25;;;3.92;;
54679;SDS011;40578;53.178;5.846;2023-04-12T00:54:15;9.80;;;4.30;;
54679;SDS011;40578;53.178;5.846;2023-04-12T00:59:08;11.27;;;3.95;;
54679;SDS011;40578;53.178;5.846;2023-04-12T01:01:34;11.00;;;4.37;;
54679;SDS011;40578;53.178;5.846;2023-04-12T01:04:02;10.23;;;4.30;;
54679;SDS011;40578;53.178;5.846;2023-04-12T01:11:59;11.15;;;4.60;;
54679;SDS011;40578;53.178;5.846;2023-04-12T01:17:07;12.60;;;4.28;;
54679;SDS011;40578;53.178;5.846;2023-04-12T01:25:01;8.07;;;4.45;;
54679;SDS011;40578;53.178;5.846;2023-04-12T01:27:38;9.77;;;4.22;;
54679;SDS011;40578;53.178;5.846;2023-04-12T01:30:35;11.85;;;4.80;;
54679;SDS011;40578;53.178;5.846;2023-04-12T01:33:02;9.35;;;3.50;;
54679;SDS011;40578;53.178;5.846;2023-04-12T01:35:30;16.08;;;4.88;;
54679;SDS011;40578;53.178;5.846;2023-04-12T01:37:57;13.15;;;4.35;;
54679;SDS011;40578;53.178;5.846;2023-04-12T01:42:51;12.13;;;3.65;;
54679;SDS011;40578;53.178;5.846;2023-04-12T01:45:37;10.63;;;3.58;;
54679;SDS011;40578;53.178;5.846;2023-04-12T01:48:07;8.90;;;3.23;;
54679;SDS011;40578;53.178;5.846;2023-04-12T01:50:43;9.52;;;3.50;;
54679;SDS011;40578;53.178;5.846;2023-04-12T01:53:38;8.60;;;3.53;;
54679;SDS011;40578;53.178;5.846;2023-04-12T01:56:08;12.02;;;3.72;;
54679;SDS011;40578;53.178;5.846;2023-04-12T01:58:34;11.63;;;3.40;;
54679;SDS011;40578;53.178;5.846;2023-04-12T02:01:01;10.85;;;3.50;;
54679;SDS011;40578;53.178;5.846;2023-04-12T02:03:28;13.73;;;4.05;;
54679;SDS011;40578;53.178;5.846;2023-04-12T02:05:56;9.10;;;3.33;;
54679;SDS011;40578;53.178;5.846;2023-04-12T02:08:23;10.68;;;3.38;;
54679;SDS011;40578;53.178;5.846;2023-04-12T02:10:50;11.27;;;3.88;;
54679;SDS011;40578;53.178;5.846;2023-04-12T02:13:16;9.45;;;3.35;;
54679;SDS011;40578;53.178;5.846;2023-04-12T02:15:42;7.53;;;3.20;;
54679;SDS011;40578;53.178;5.846;2023-04-12T02:18:08;8.63;;;3.10;;
54679;SDS011;40578;53.178;5.846;2023-04-12T02:20:35;8.38;;;3.05;;
54679;SDS011;40578;53.178;5.846;2023-04-12T02:23:01;11.43;;;3.17;;
54679;SDS011;40578;53.178;5.846;2023-04-12T02:25:28;7.27;;;3.10;;
54679;SDS011;40578;53.178;5.846;2023-04-12T02:27:54;8.00;;;2.95;;
54679;SDS011;40578;53.178;5.846;2023-04-12T02:30:20;5.63;;;2.40;;
54679;SDS011;40578;53.178;5.846;2023-04-12T02:32:47;9.52;;;3.22;;
54679;SDS011;40578;53.178;5.846;2023-04-12T02:35:13;8.33;;;3.10;;
54679;SDS011;40578;53.178;5.846;2023-04-12T02:37:43;9.00;;;3.20;;
54679;SDS011;40578;53.178;5.846;2023-04-12T02:40:11;8.32;;;3.33;;
54679;SDS011;40578;53.178;5.846;2023-04-12T02:42:38;11.27;;;3.85;;
54679;SDS011;40578;53.178;5.846;2023-04-12T02:45:04;8.43;;;3.30;;
54679;SDS011;40578;53.178;5.846;2023-04-12T02:47:30;7.80;;;3.28;;
54679;SDS011;40578;53.178;5.846;2023-04-12T02:49:56;6.00;;;2.83;;
54679;SDS011;40578;53.178;5.846;2023-04-12T02:52:21;5.90;;;3.17;;
54679;SDS011;40578;53.178;5.846;2023-04-12T02:54:50;8.70;;;3.33;;
54679;SDS011;40578;53.178;5.846;2023-04-12T02:57:16;7.60;;;3.67;;
54679;SDS011;40578;53.178;5.846;2023-04-12T02:59:42;7.73;;;3.53;;
54679;SDS011;40578;53.178;5.846;2023-04-12T03:02:08;7.63;;;3.67;;
54679;SDS011;40578;53.178;5.846;2023-04-12T03:04:33;8.93;;;4.00;;
54679;SDS011;40578;53.178;5.846;2023-04-12T03:07:01;10.60;;;3.92;;
54679;SDS011;40578;53.178;5.846;2023-04-12T03:09:27;9.18;;;4.00;;
54679;SDS011;40578;53.178;5.846;2023-04-12T03:11:53;8.20;;;3.90;;
54679;SDS011;40578;53.178;5.846;2023-04-12T03:14:18;8.77;;;4.20;;
54679;SDS011;40578;53.178;5.846;2023-04-12T03:16:44;10.80;;;3.90;;
54679;SDS011;40578;53.178;5.846;2023-04-12T03:19:10;8.03;;;3.60;;
54679;SDS011;40578;53.178;5.846;2023-04-12T03:21:35;11.23;;;4.00;;
54679;SDS011;40578;53.178;5.846;2023-04-12T03:24:01;8.63;;;3.67;;
54679;SDS011;40578;53.178;5.846;2023-04-12T03:26:28;10.02;;;3.88;;
54679;SDS011;40578;53.178;5.846;2023-04-12T03:28:57;6.80;;;3.58;;
54679;SDS011;40578;53.178;5.846;2023-04-12T03:31:24;7.47;;;3.50;;
54679;SDS011;40578;53.178;5.846;2023-04-12T03:33:51;7.35;;;3.50;;
54679;SDS011;40578;53.178;5.846;2023-04-12T03:36:17;10.98;;;3.75;;
54679;SDS011;40578;53.178;5.846;2023-04-12T03:41:10;8.55;;;3.83;;
54679;SDS011;40578;53.178;5.846;2023-04-12T03:43:37;8.43;;;3.60;;
54679;SDS011;40578;53.178;5.846;2023-04-12T03:46:03;8.67;;;3.80;;
54679;SDS011;40578;53.178;5.846;2023-04-12T03:48:29;10.00;;;3.67;;
54679;SDS011;40578;53.178;5.846;2023-04-12T03:50:55;8.17;;;3.80;;
54679;SDS011;40578;53.178;5.846;2023-04-12T03:53:23;7.70;;;4.13;;
54679;SDS011;40578;53.178;5.846;2023-04-12T03:55:51;11.93;;;4.60;;
54679;SDS011;40578;53.178;5.846;2023-04-12T03:58:18;11.00;;;5.07;;
54679;SDS011;40578;53.178;5.846;2023-04-12T04:03:10;13.07;;;4.72;;
54679;SDS011;40578;53.178;5.846;2023-04-12T04:05:36;12.02;;;5.43;;
54679;SDS011;40578;53.178;5.846;2023-04-12T04:08:02;12.77;;;5.50;;
54679;SDS011;40578;53.178;5.846;2023-04-12T04:10:30;11.13;;;5.10;;
54679;SDS011;40578;53.178;5.846;2023-04-12T04:12:56;12.47;;;5.73;;
54679;SDS011;40578;53.178;5.846;2023-04-12T04:15:23;9.20;;;5.37;;
54679;SDS011;40578;53.178;5.846;2023-04-12T04:17:49;13.85;;;5.93;;
54679;SDS011;40578;53.178;5.846;2023-04-12T04:20:15;10.73;;;4.90;;
54679;SDS011;40578;53.178;5.846;2023-04-12T04:22:42;14.23;;;5.05;;
54679;SDS011;40578;53.178;5.846;2023-04-12T04:25:08;9.15;;;5.40;;
54679;SDS011;40578;53.178;5.846;2023-04-12T04:27:35;10.40;;;5.13;;
54679;SDS011;40578;53.178;5.846;2023-04-12T04:30:02;11.43;;;4.72;;
54679;SDS011;40578;53.178;5.846;2023-04-12T04:32:30;11.52;;;5.00;;
54679;SDS011;40578;53.178;5.846;2023-04-12T04:34:57;11.38;;;4.55;;
54679;SDS011;40578;53.178;5.846;2023-04-12T04:37:27;12.02;;;4.50;;
54679;SDS011;40578;53.178;5.846;2023-04-12T04:39:54;14.13;;;4.40;;
54679;SDS011;40578;53.178;5.846;2023-04-12T04:42:20;9.70;;;4.03;;
54679;SDS011;40578;53.178;5.846;2023-04-12T04:44:47;13.77;;;4.18;;
54679;SDS011;40578;53.178;5.846;2023-04-12T04:47:15;11.35;;;4.55;;
54679;SDS011;40578;53.178;5.846;2023-04-12T04:49:46;9.25;;;4.10;;
54679;SDS011;40578;53.178;5.846;2023-04-12T04:52:12;8.63;;;3.97;;
54679;SDS011;40578;53.178;5.846;2023-04-12T04:54:39;11.38;;;5.22;;
54679;SDS011;40578;53.178;5.846;2023-04-12T04:57:05;9.30;;;4.20;;
54679;SDS011;40578;53.178;5.846;2023-04-12T04:59:31;10.80;;;4.28;;
54679;SDS011;40578;53.178;5.846;2023-04-12T05:01:57;8.57;;;4.33;;
54679;SDS011;40578;53.178;5.846;2023-04-12T05:04:23;11.73;;;4.53;;
54679;SDS011;40578;53.178;5.846;2023-04-12T05:06:48;8.43;;;4.60;;
54679;SDS011;40578;53.178;5.846;2023-04-12T05:09:14;10.77;;;4.40;;
54679;SDS011;40578;53.178;5.846;2023-04-12T05:11:40;10.17;;;4.60;;
54679;SDS011;40578;53.178;5.846;2023-04-12T05:14:05;6.17;;;4.07;;
54679;SDS011;40578;53.178;5.846;2023-04-12T05:16:31;9.30;;;4.67;;
54679;SDS011;40578;53.178;5.846;2023-04-12T05:18:56;10.10;;;5.13;;
54679;SDS011;40578;53.178;5.846;2023-04-12T05:21:22;8.30;;;5.00;;
54679;SDS011;40578;53.178;5.846;2023-04-12T05:23:48;10.43;;;4.60;;
54679;SDS011;40578;53.178;5.846;2023-04-12T05:26:14;11.60;;;5.25;;
54679;SDS011;40578;53.178;5.846;2023-04-12T05:28:40;10.63;;;5.37;;
54679;SDS011;40578;53.178;5.846;2023-04-12T05:31:05;7.83;;;5.30;;
54679;SDS011;40578;53.178;5.846;2023-04-12T05:33:32;12.15;;;6.05;;
54679;SDS011;40578;53.178;5.846;2023-04-12T05:35:58;11.07;;;6.28;;
54679;SDS011;40578;53.178;5.846;2023-04-12T05:38:24;10.47;;;6.13;;
54679;SDS011;40578;53.178;5.846;2023-04-12T05:40:50;14.77;;;6.60;;
54679;SDS011;40578;53.178;5.846;2023-04-12T05:43:15;15.60;;;7.97;;
54679;SDS011;40578;53.178;5.846;2023-04-12T05:45:41;11.60;;;6.90;;
54679;SDS011;40578;53.178;5.846;2023-04-12T05:48:07;13.67;;;6.87;;
54679;SDS011;40578;53.178;5.846;2023-04-12T05:50:33;14.33;;;6.80;;
54679;SDS011;40578;53.178;5.846;2023-04-12T05:52:59;11.90;;;6.78;;
54679;SDS011;40578;53.178;5.846;2023-04-12T05:55:26;12.80;;;7.35;;
54679;SDS011;40578;53.178;5.846;2023-04-12T05:57:52;14.60;;;8.68;;
54679;SDS011;40578;53.178;5.846;2023-04-12T06:00:18;16.50;;;9.93;;
54679;SDS011;40578;53.178;5.846;2023-04-12T06:05:11;14.80;;;9.43;;
54679;SDS011;40578;53.178;5.846;2023-04-12T06:07:38;16.02;;;8.98;;
54679;SDS011;40578;53.178;5.846;2023-04-12T06:10:06;16.85;;;10.30;;
54679;SDS011;40578;53.178;5.846;2023-04-12T06:12:32;16.95;;;10.10;;
54679;SDS011;40578;53.178;5.846;2023-04-12T06:14:58;13.40;;;8.47;;
54679;SDS011;40578;53.178;5.846;2023-04-12T06:17:23;16.27;;;10.00;;
54679;SDS011;40578;53.178;5.846;2023-04-12T06:19:49;18.87;;;11.00;;
54679;SDS011;40578;53.178;5.846;2023-04-12T06:22:15;14.77;;;10.40;;
54679;SDS011;40578;53.178;5.846;2023-04-12T06:24:40;16.77;;;10.73;;
54679;SDS011;40578;53.178;5.846;2023-04-12T06:27:06;15.57;;;11.17;;
54679;SDS011;40578;53.178;5.846;2023-04-12T06:29:32;17.07;;;10.53;;
54679;SDS011;40578;53.178;5.846;2023-04-12T06:31:57;17.43;;;11.43;;
54679;SDS011;40578;53.178;5.846;2023-04-12T06:34:23;16.37;;;10.67;;
54679;SDS011;40578;53.178;5.846;2023-04-12T06:36:48;19.13;;;11.00;;
54679;SDS011;40578;53.178;5.846;2023-04-12T06:39:14;20.30;;;11.67;;
54679;SDS011;40578;53.178;5.846;2023-04-12T06:41:41;19.05;;;11.85;;
54679;SDS011;40578;53.178;5.846;2023-04-12T06:44:11;18.63;;;11.52;;
54679;SDS011;40578;53.178;5.846;2023-04-12T06:46:37;16.70;;;9.83;;
54679;SDS011;40578;53.178;5.846;2023-04-12T06:49:02;16.97;;;10.43;;
54679;SDS011;40578;53.178;5.846;2023-04-12T06:51:28;14.03;;;9.43;;
54679;SDS011;40578;53.178;5.846;2023-04-12T06:53:54;15.97;;;11.50;;
54679;SDS011;40578;53.178;5.846;2023-04-12T06:56:21;15.52;;;9.43;;
54679;SDS011;40578;53.178;5.846;2023-04-12T06:58:47;13.60;;;9.07;;
54679;SDS011;40578;53.178;5.846;2023-04-12T07:01:13;13.83;;;9.17;;
54679;SDS011;40578;53.178;5.846;2023-04-12T07:03:39;15.87;;;8.90;;
54679;SDS011;40578;53.178;5.846;2023-04-12T07:06:04;13.68;;;8.60;;
54679;SDS011;40578;53.178;5.846;2023-04-12T07:08:34;13.80;;;8.20;;
54679;SDS011;40578;53.178;5.846;2023-04-12T07:11:00;12.52;;;8.40;;
54679;SDS011;40578;53.178;5.846;2023-04-12T07:13:26;14.88;;;8.35;;
54679;SDS011;40578;53.178;5.846;2023-04-12T07:15:52;15.43;;;9.53;;
54679;SDS011;40578;53.178;5.846;2023-04-12T07:18:18;14.35;;;8.50;;
54679;SDS011;40578;53.178;5.846;2023-04-12T07:20:47;10.30;;;7.05;;
54679;SDS011;40578;53.178;5.846;2023-04-12T07:23:17;10.75;;;6.47;;
54679;SDS011;40578;53.178;5.846;2023-04-12T07:25:42;10.40;;;6.27;;
54679;SDS011;40578;53.178;5.846;2023-04-12T07:28:08;9.70;;;6.67;;
54679;SDS011;40578;53.178;5.846;2023-04-12T07:30:34;10.63;;;7.63;;
54679;SDS011;40578;53.178;5.846;2023-04-12T07:33:00;12.17;;;6.97;;
54679;SDS011;40578;53.178;5.846;2023-04-12T07:35:29;11.27;;;7.15;;
54679;SDS011;40578;53.178;5.846;2023-04-12T07:37:55;12.43;;;6.90;;
54679;SDS011;40578;53.178;5.846;2023-04-12T07:40:21;9.77;;;6.47;;
54679;SDS011;40578;53.178;5.846;2023-04-12T07:42:47;10.15;;;5.68;;
54679;SDS011;40578;53.178;5.846;2023-04-12T07:45:13;9.20;;;6.07;;
54679;SDS011;40578;53.178;5.846;2023-04-12T07:47:38;10.33;;;6.23;;
54679;SDS011;40578;53.178;5.846;2023-04-12T07:50:04;8.27;;;5.93;;
54679;SDS011;40578;53.178;5.846;2023-04-12T07:52:30;9.13;;;6.13;;
54679;SDS011;40578;53.178;5.846;2023-04-12T07:54:56;9.97;;;5.87;;
54679;SDS011;40578;53.178;5.846;2023-04-12T07:57:22;8.75;;;6.38;;
54679;SDS011;40578;53.178;5.846;2023-04-12T07:59:48;12.70;;;6.10;;
54679;SDS011;40578;53.178;5.846;2023-04-12T08:02:14;8.98;;;4.93;;
54679;SDS011;40578;53.178;5.846;2023-04-12T08:04:48;10.25;;;5.70;;
54679;SDS011;40578;53.178;5.846;2023-04-12T08:07:17;13.32;;;6.07;;
54679;SDS011;40578;53.178;5.846;2023-04-12T08:09:44;10.43;;;5.82;;
54679;SDS011;40578;53.178;5.846;2023-04-12T08:12:10;11.32;;;5.82;;
54679;SDS011;40578;53.178;5.846;2023-04-12T08:14:36;10.23;;;5.63;;
54679;SDS011;40578;53.178;5.846;2023-04-12T08:17:01;10.83;;;5.90;;
54679;SDS011;40578;53.178;5.846;2023-04-12T08:19:27;14.10;;;5.93;;
54679;SDS011;40578;53.178;5.846;2023-04-12T08:21:53;10.87;;;4.60;;
54679;SDS011;40578;53.178;5.846;2023-04-12T08:24:18;10.40;;;3.67;;
54679;SDS011;40578;53.178;5.846;2023-04-12T08:26:44;9.83;;;4.90;;
54679;SDS011;40578;53.178;5.846;2023-04-12T08:29:10;8.80;;;5.38;;
54679;SDS011;40578;53.178;5.846;2023-04-12T08:31:36;10.63;;;6.37;;
54679;SDS011;40578;53.178;5.846;2023-04-12T08:34:02;10.15;;;6.38;;
54679;SDS011;40578;53.178;5.846;2023-04-12T08:36:28;11.20;;;6.63;;
54679;SDS011;40578;53.178;5.846;2023-04-12T08:38:57;11.73;;;6.57;;
54679;SDS011;40578;53.178;5.846;2023-04-12T08:41:23;9.25;;;5.97;;
54679;SDS011;40578;53.178;5.846;2023-04-12T08:43:49;8.97;;;5.77;;
54679;SDS011;40578;53.178;5.846;2023-04-12T08:48:45;14.45;;;6.13;;
54679;SDS011;40578;53.178;5.846;2023-04-12T08:51:17;19.90;;;6.65;;
54679;SDS011;40578;53.178;5.846;2023-04-12T08:53:44;13.68;;;5.57;;
54679;SDS011;40578;53.178;5.846;2023-04-12T08:56:10;16.97;;;5.97;;
54679;SDS011;40578;53.178;5.846;2023-04-12T08:58:40;13.20;;;6.22;;
54679;SDS011;40578;53.178;5.846;2023-04-12T09:01:18;18.63;;;6.18;;
54679;SDS011;40578;53.178;5.846;2023-04-12T09:03:44;13.27;;;5.53;;
54679;SDS011;40578;53.178;5.846;2023-04-12T09:06:13;14.03;;;4.73;;
54679;SDS011;40578;53.178;5.846;2023-04-12T09:08:55;17.02;;;5.53;;
54679;SDS011;40578;53.178;5.846;2023-04-12T09:11:22;13.32;;;4.22;;
54679;SDS011;40578;53.178;5.846;2023-04-12T09:13:50;14.18;;;3.53;;
54679;SDS011;40578;53.178;5.846;2023-04-12T09:16:16;14.98;;;3.92;;
54679;SDS011;40578;53.178;5.846;2023-04-12T09:18:50;14.38;;;3.72;;
54679;SDS011;40578;53.178;5.846;2023-04-12T09:21:16;13.60;;;2.95;;
54679;SDS011;40578;53.178;5.846;2023-04-12T09:23:42;10.60;;;3.15;;
54679;SDS011;40578;53.178;5.846;2023-04-12T09:26:08;8.60;;;2.53;;
54679;SDS011;40578;53.178;5.846;2023-04-12T09:28:50;8.93;;;2.65;;
54679;SDS011;40578;53.178;5.846;2023-04-12T09:31:16;15.10;;;3.37;;
54679;SDS011;40578;53.178;5.846;2023-04-12T09:33:41;11.07;;;2.50;;
54679;SDS011;40578;53.178;5.846;2023-04-12T09:36:07;11.23;;;2.50;;
54679;SDS011;40578;53.178;5.846;2023-04-12T09:38:37;13.30;;;2.60;;
54679;SDS011;40578;53.178;5.846;2023-04-12T09:41:16;10.20;;;2.65;;
54679;SDS011;40578;53.178;5.846;2023-04-12T09:43:43;12.00;;;2.55;;
54679;SDS011;40578;53.178;5.846;2023-04-12T09:46:10;9.50;;;2.33;;
54679;SDS011;40578;53.178;5.846;2023-04-12T09:48:40;14.52;;;2.70;;
54679;SDS011;40578;53.178;5.846;2023-04-12T09:51:12;10.25;;;2.75;;
54679;SDS011;40578;53.178;5.846;2023-04-12T09:53:38;13.17;;;2.73;;
54679;SDS011;40578;53.178;5.846;2023-04-12T09:56:08;13.80;;;3.10;;
54679;SDS011;40578;53.178;5.846;2023-04-12T09:58:35;15.73;;;3.17;;
54679;SDS011;40578;53.178;5.846;2023-04-12T10:01:01;10.20;;;2.70;;
54679;SDS011;40578;53.178;5.846;2023-04-12T10:03:28;10.32;;;2.60;;
54679;SDS011;40578;53.178;5.846;2023-04-12T10:05:54;10.73;;;2.65;;
54679;SDS011;40578;53.178;5.846;2023-04-12T10:08:23;10.98;;;2.70;;
54679;SDS011;40578;53.178;5.846;2023-04-12T10:10:49;11.70;;;2.97;;
54679;SDS011;40578;53.178;5.846;2023-04-12T10:13:17;10.07;;;2.20;;
54679;SDS011;40578;53.178;5.846;2023-04-12T10:15:47;11.82;;;2.20;;
54679;SDS011;40578;53.178;5.846;2023-04-12T10:18:15;12.13;;;2.53;;
54679;SDS011;40578;53.178;5.846;2023-04-12T10:20:42;8.85;;;2.35;;
54679;SDS011;40578;53.178;5.846;2023-04-12T10:23:10;10.13;;;2.30;;
54679;SDS011;40578;53.178;5.846;2023-04-12T10:25:37;11.85;;;2.55;;
54679;SDS011;40578;53.178;5.846;2023-04-12T10:28:17;10.70;;;2.50;;
54679;SDS011;40578;53.178;5.846;2023-04-12T10:30:43;17.52;;;2.40;;
54679;SDS011;40578;53.178;5.846;2023-04-12T10:33:11;9.90;;;2.47;;
54679;SDS011;40578;53.178;5.846;2023-04-12T10:35:48;9.73;;;1.77;;
54679;SDS011;40578;53.178;5.846;2023-04-12T10:38:27;11.13;;;2.55;;
54679;SDS011;40578;53.178;5.846;2023-04-12T10:43:44;8.57;;;1.98;;
54679;SDS011;40578;53.178;5.846;2023-04-12T10:49:07;6.47;;;1.88;;
54679;SDS011;40578;53.178;5.846;2023-04-12T10:51:34;10.02;;;1.92;;
54679;SDS011;40578;53.178;5.846;2023-04-12T10:56:41;8.85;;;2.03;;
54679;SDS011;40578;53.178;5.846;2023-04-12T10:59:11;21.48;;;2.75;;
54679;SDS011;40578;53.178;5.846;2023-04-12T11:01:40;11.55;;;2.50;;
54679;SDS011;40578;53.178;5.846;2023-04-12T11:04:26;11.68;;;2.03;;
54679;SDS011;40578;53.178;5.846;2023-04-12T11:11:48;14.13;;;2.75;;
54679;SDS011;40578;53.178;5.846;2023-04-12T11:14:14;13.93;;;2.72;;
54679;SDS011;40578;53.178;5.846;2023-04-12T11:19:31;11.07;;;2.15;;
54679;SDS011;40578;53.178;5.846;2023-04-12T11:22:02;8.88;;;2.30;;
54679;SDS011;40578;53.178;5.846;2023-04-12T11:24:29;15.13;;;3.15;;
54679;SDS011;40578;53.178;5.846;2023-04-12T11:26:55;13.70;;;2.92;;
54679;SDS011;40578;53.178;5.846;2023-04-12T11:29:22;16.48;;;3.38;;
54679;SDS011;40578;53.178;5.846;2023-04-12T11:31:48;9.60;;;2.10;;
54679;SDS011;40578;53.178;5.846;2023-04-12T11:34:17;8.73;;;2.27;;
54679;SDS011;40578;53.178;5.846;2023-04-12T11:36:47;14.52;;;3.00;;
54679;SDS011;40578;53.178;5.846;2023-04-12T11:39:16;16.38;;;3.05;;
54679;SDS011;40578;53.178;5.846;2023-04-12T11:41:45;13.13;;;2.53;;
54679;SDS011;40578;53.178;5.846;2023-04-12T11:44:13;16.00;;;2.83;;
54679;SDS011;40578;53.178;5.846;2023-04-12T11:46:42;10.57;;;2.15;;
54679;SDS011;40578;53.178;5.846;2023-04-12T11:49:07;12.10;;;2.50;;
54679;SDS011;40578;53.178;5.846;2023-04-12T11:51:33;14.57;;;2.23;;
54679;SDS011;40578;53.178;5.846;2023-04-12T11:53:59;11.15;;;2.22;;
54679;SDS011;40578;53.178;5.846;2023-04-12T11:56:25;8.87;;;1.73;;
54679;SDS011;40578;53.178;5.846;2023-04-12T11:58:53;12.70;;;2.38;;
54679;SDS011;40578;53.178;5.846;2023-04-12T12:01:19;11.07;;;2.30;;
54679;SDS011;40578;53.178;5.846;2023-04-12T12:03:46;6.22;;;1.80;;
54679;SDS011;40578;53.178;5.846;2023-04-12T12:08:38;10.25;;;2.60;;
54679;SDS011;40578;53.178;5.846;2023-04-12T12:11:04;6.60;;;1.90;;
54679;SDS011;40578;53.178;5.846;2023-04-12T12:13:44;8.05;;;1.80;;
54679;SDS011;40578;53.178;5.846;2023-04-12T12:16:17;6.95;;;2.05;;
54679;SDS011;40578;53.178;5.846;2023-04-12T12:18:47;10.60;;;2.17;;
54679;SDS011;40578;53.178;5.846;2023-04-12T12:21:14;8.60;;;2.10;;
54679;SDS011;40578;53.178;5.846;2023-04-12T12:23:43;9.13;;;2.17;;
54679;SDS011;40578;53.178;5.846;2023-04-12T12:26:13;7.95;;;1.90;;
54679;SDS011;40578;53.178;5.846;2023-04-12T12:28:56;9.73;;;2.08;;
54679;SDS011;40578;53.178;5.846;2023-04-12T12:33:55;10.82;;;1.90;;
54679;SDS011;40578;53.178;5.846;2023-04-12T12:36:29;6.97;;;1.70;;
54679;SDS011;40578;53.178;5.846;2023-04-12T12:39:06;7.55;;;1.33;;
54679;SDS011;40578;53.178;5.846;2023-04-12T12:41:36;9.50;;;1.95;;
54679;SDS011;40578;53.178;5.846;2023-04-12T12:44:02;6.00;;;1.50;;
54679;SDS011;40578;53.178;5.846;2023-04-12T12:46:28;6.20;;;1.63;;
54679;SDS011;40578;53.178;5.846;2023-04-12T12:48:54;9.85;;;1.80;;
54679;SDS011;40578;53.178;5.846;2023-04-12T12:51:20;8.70;;;1.77;;
54679;SDS011;40578;53.178;5.846;2023-04-12T12:53:46;6.50;;;1.93;;
54679;SDS011;40578;53.178;5.846;2023-04-12T12:56:12;6.47;;;1.70;;
54679;SDS011;40578;53.178;5.846;2023-04-12T12:58:39;7.25;;;1.58;;
54679;SDS011;40578;53.178;5.846;2023-04-12T13:01:05;7.40;;;1.90;;
54679;SDS011;40578;53.178;5.846;2023-04-12T13:03:31;6.13;;;1.90;;
54679;SDS011;40578;53.178;5.846;2023-04-12T13:05:57;7.78;;;2.15;;
54679;SDS011;40578;53.178;5.846;2023-04-12T13:08:23;6.15;;;2.00;;
54679;SDS011;40578;53.178;5.846;2023-04-12T13:10:49;8.95;;;1.90;;
54679;SDS011;40578;53.178;5.846;2023-04-12T13:13:16;7.32;;;1.80;;
54679;SDS011;40578;53.178;5.846;2023-04-12T13:15:42;9.20;;;1.90;;
54679;SDS011;40578;53.178;5.846;2023-04-12T13:18:10;9.10;;;2.35;;
54679;SDS011;40578;53.178;5.846;2023-04-12T13:20:39;6.68;;;1.85;;
54679;SDS011;40578;53.178;5.846;2023-04-12T13:23:05;10.68;;;2.42;;
54679;SDS011;40578;53.178;5.846;2023-04-12T13:25:31;11.93;;;2.20;;
54679;SDS011;40578;53.178;5.846;2023-04-12T13:27:56;10.33;;;2.10;;
54679;SDS011;40578;53.178;5.846;2023-04-12T13:30:22;9.60;;;2.17;;
54679;SDS011;40578;53.178;5.846;2023-04-12T13:32:48;7.17;;;1.80;;
54679;SDS011;40578;53.178;5.846;2023-04-12T13:35:13;8.37;;;1.90;;
54679;SDS011;40578;53.178;5.846;2023-04-12T13:37:39;5.03;;;1.60;;
54679;SDS011;40578;53.178;5.846;2023-04-12T13:40:06;7.80;;;2.38;;
54679;SDS011;40578;53.178;5.846;2023-04-12T13:42:32;8.13;;;1.90;;
54679;SDS011;40578;53.178;5.846;2023-04-12T13:44:57;7.57;;;1.90;;
54679;SDS011;40578;53.178;5.846;2023-04-12T13:47:23;8.23;;;2.00;;
54679;SDS011;40578;53.178;5.846;2023-04-12T13:49:51;5.72;;;1.77;;
54679;SDS011;40578;53.178;5.846;2023-04-12T13:52:16;5.70;;;1.97;;
54679;SDS011;40578;53.178;5.846;2023-04-12T13:54:42;8.10;;;1.67;;
54679;SDS011;40578;53.178;5.846;2023-04-12T13:57:08;9.37;;;2.23;;
54679;SDS011;40578;53.178;5.846;2023-04-12T13:59:34;6.43;;;1.77;;
54679;SDS011;40578;53.178;5.846;2023-04-12T14:02:00;8.43;;;1.77;;
54679;SDS011;40578;53.178;5.846;2023-04-12T14:04:26;7.53;;;2.00;;
54679;SDS011;40578;53.178;5.846;2023-04-12T14:06:53;10.25;;;1.92;;
54679;SDS011;40578;53.178;5.846;2023-04-12T14:09:23;10.98;;;2.05;;
54679;SDS011;40578;53.178;5.846;2023-04-12T14:11:53;8.90;;;1.92;;
54679;SDS011;40578;53.178;5.846;2023-04-12T14:16:47;10.10;;;2.10;;
54679;SDS011;40578;53.178;5.846;2023-04-12T14:19:17;10.55;;;2.40;;
54679;SDS011;40578;53.178;5.846;2023-04-12T14:21:44;9.32;;;2.20;;
54679;SDS011;40578;53.178;5.846;2023-04-12T14:26:37;9.65;;;2.40;;
54679;SDS011;40578;53.178;5.846;2023-04-12T14:29:04;9.45;;;2.42;;
54679;SDS011;40578;53.178;5.846;2023-04-12T14:31:30;9.57;;;2.35;;
54679;SDS011;40578;53.178;5.846;2023-04-12T14:33:56;7.20;;;2.05;;
54679;SDS011;40578;53.178;5.846;2023-04-12T14:36:22;7.17;;;1.73;;
54679;SDS011;40578;53.178;5.846;2023-04-12T14:38:47;10.20;;;2.60;;
54679;SDS011;40578;53.178;5.846;2023-04-12T14:41:14;9.05;;;2.38;;
54679;SDS011;40578;53.178;5.846;2023-04-12T14:43:41;8.45;;;2.08;;
54679;SDS011;40578;53.178;5.846;2023-04-12T14:46:06;10.03;;;2.23;;
54679;SDS011;40578;53.178;5.846;2023-04-12T14:48:32;9.53;;;2.17;;
54679;SDS011;40578;53.178;5.846;2023-04-12T14:50:57;13.80;;;2.23;;
54679;SDS011;40578;53.178;5.846;2023-04-12T14:53:24;10.35;;;2.38;;
54679;SDS011;40578;53.178;5.846;2023-04-12T14:55:50;11.00;;;2.23;;
54679;SDS011;40578;53.178;5.846;2023-04-12T14:58:15;6.23;;;1.80;;
54679;SDS011;40578;53.178;5.846;2023-04-12T15:00:41;11.20;;;2.23;;
54679;SDS011;40578;53.178;5.846;2023-04-12T15:03:06;10.03;;;2.27;;
54679;SDS011;40578;53.178;5.846;2023-04-12T15:05:34;9.87;;;2.53;;
54679;SDS011;40578;53.178;5.846;2023-04-12T15:08:00;12.60;;;2.92;;
54679;SDS011;40578;53.178;5.846;2023-04-12T15:10:26;6.93;;;2.03;;
54679;SDS011;40578;53.178;5.846;2023-04-12T15:12:52;7.13;;;1.90;;
54679;SDS011;40578;53.178;5.846;2023-04-12T15:15:18;8.05;;;1.90;;
54679;SDS011;40578;53.178;5.846;2023-04-12T15:17:44;8.13;;;2.20;;
54679;SDS011;40578;53.178;5.846;2023-04-12T15:20:10;6.67;;;1.90;;
54679;SDS011;40578;53.178;5.846;2023-04-12T15:22:37;7.05;;;1.77;;
54679;SDS011;40578;53.178;5.846;2023-04-12T15:25:04;9.70;;;2.08;;
54679;SDS011;40578;53.178;5.846;2023-04-12T15:27:30;8.13;;;2.25;;
54679;SDS011;40578;53.178;5.846;2023-04-12T15:29:57;5.95;;;1.90;;
54679;SDS011;40578;53.178;5.846;2023-04-12T15:32:25;9.60;;;1.90;;
54679;SDS011;40578;53.178;5.846;2023-04-12T15:34:52;5.85;;;1.80;;
54679;SDS011;40578;53.178;5.846;2023-04-12T15:37:21;8.65;;;2.30;;